Time;durP1;ratioP1;P1;durP2;ratioP2;P2;SDS_P1;SDS_P2;PMS_P1;PMS_P2;Temp;Humidity;BMP_temperature;BMP_pressure;BME280_temperature;BME280_humidity;BME280_pressure;Samples;Min_cycle;Max_cycle;Signal;HPM_P1;HPM_P2
2024/01/10 00:01:05;;;;;;;31.63;20.52;;;;;;;-6.25;100.00;103546.56;10036892;29;20054;-69
2024/01/10 00:06:02;;;;;;;30.20;20.65;;;;;;;-6.19;100.00;103537.22;10031077;29;20052;-70
2024/01/10 00:11:01;;;;;;;34.13;21.60;;;;;;;-6.40;100.00;103531.97;10043303;29;20071;-68
2024/01/10 00:15:58;;;;;;;34.20;21.70;;;;;;;-6.37;100.00;103539.69;10032099;28;20464;-68
2024/01/10 00:20:55;;;;;;;30.75;20.83;;;;;;;-6.34;100.00;103528.75;10033569;29;20050;-69
2024/01/10 00:25:51;;;;;;;25.83;19.67;;;;;;;-6.43;100.00;103529.56;10039909;28;20080;-69
2024/01/10 00:30:48;;;;;;;26.77;19.35;;;;;;;-6.60;100.00;103531.06;10034764;29;20064;-69
2024/01/10 00:35:45;;;;;;;28.90;18.63;;;;;;;-6.51;100.00;103532.91;10029888;29;20407;-68
2024/01/10 00:40:42;;;;;;;26.65;18.90;;;;;;;-6.57;100.00;103542.28;10024172;29;20103;-68
2024/01/10 00:45:38;;;;;;;33.72;19.35;;;;;;;-6.56;100.00;103535.13;10027853;29;20657;-69
2024/01/10 00:50:35;;;;;;;25.00;17.63;;;;;;;-6.51;100.00;103537.41;10033614;29;20499;-68
2024/01/10 00:55:31;;;;;;;23.55;17.88;;;;;;;-6.37;100.00;103529.03;10040559;29;20047;-67
2024/01/10 01:00:28;;;;;;;28.75;18.80;;;;;;;-6.24;100.00;103544.75;10027486;29;20076;-68
2024/01/10 01:05:24;;;;;;;25.17;17.75;;;;;;;-6.24;100.00;103534.94;10032362;29;20048;-68
2024/01/10 01:10:21;;;;;;;24.52;17.85;;;;;;;-6.09;100.00;103540.72;10049489;28;20529;-67
2024/01/10 01:15:17;;;;;;;27.35;19.77;;;;;;;-5.98;100.00;103539.75;10043176;29;20070;-69
2024/01/10 01:20:14;;;;;;;35.65;18.83;;;;;;;-5.91;100.00;103543.53;10051267;29;20058;-69
2024/01/10 01:25:11;;;;;;;29.67;19.83;;;;;;;-5.80;100.00;103547.84;10030709;29;20703;-69
2024/01/10 01:30:08;;;;;;;34.50;21.05;;;;;;;-5.67;100.00;103534.25;10052914;29;20058;-68
2024/01/10 01:35:05;;;;;;;32.25;20.05;;;;;;;-5.65;100.00;103535.81;10049747;29;20127;-69
2024/01/10 01:40:01;;;;;;;32.97;19.77;;;;;;;-5.59;100.00;103534.38;10042068;29;20052;-69
2024/01/10 01:44:58;;;;;;;34.03;21.10;;;;;;;-5.72;100.00;103532.84;10043890;29;20574;-68
2024/01/10 01:49:54;;;;;;;36.05;20.80;;;;;;;-5.61;100.00;103526.56;10042742;29;20036;-71
2024/01/10 01:54:51;;;;;;;40.92;20.83;;;;;;;-5.57;100.00;103519.09;10044785;29;20131;-70
2024/01/10 01:59:48;;;;;;;31.33;19.80;;;;;;;-5.54;100.00;103514.34;10041927;29;20044;-69
2024/01/10 02:04:46;;;;;;;37.40;20.35;;;;;;;-5.59;100.00;103511.25;10035633;29;20052;-70
2024/01/10 02:09:43;;;;;;;30.52;19.05;;;;;;;-5.46;100.00;103524.28;10038862;29;20070;-70
2024/01/10 02:14:39;;;;;;;27.48;18.08;;;;;;;-5.37;100.00;103518.09;10045123;29;20055;-71
2024/01/10 02:19:36;;;;;;;36.60;20.52;;;;;;;-5.51;100.00;103521.22;10039385;29;20104;-69
2024/01/10 02:24:32;;;;;;;40.33;19.50;;;;;;;-5.48;100.00;103522.75;10049377;29;20070;-69
2024/01/10 02:29:30;;;;;;;38.47;20.13;;;;;;;-5.60;100.00;103511.41;10048734;29;20051;-70
2024/01/10 02:34:26;;;;;;;34.38;20.90;;;;;;;-5.39;100.00;103514.72;10045301;29;20510;-69
2024/01/10 02:39:23;;;;;;;37.40;21.90;;;;;;;-5.40;100.00;103512.22;10032215;29;20036;-69
2024/01/10 02:44:21;;;;;;;32.75;19.55;;;;;;;-5.26;100.00;103509.09;10038257;28;20058;-71
2024/01/10 02:49:18;;;;;;;34.15;20.27;;;;;;;-5.29;100.00;103499.56;10043647;29;20043;-71
2024/01/10 02:54:14;;;;;;;34.47;20.13;;;;;;;-5.23;100.00;103502.63;10044508;29;20047;-69
2024/01/10 02:59:11;;;;;;;32.67;20.42;;;;;;;-5.19;100.00;103504.03;10032991;29;20056;-70
2024/01/10 03:04:08;;;;;;;32.72;20.00;;;;;;;-5.04;100.00;103507.06;10036616;29;20057;-70
2024/01/10 03:09:04;;;;;;;33.78;21.17;;;;;;;-4.97;100.00;103509.00;10038415;29;20047;-68
2024/01/10 03:14:03;;;;;;;34.83;20.65;;;;;;;-4.96;100.00;103500.03;10036390;29;20446;-68
2024/01/10 03:19:00;;;;;;;32.17;20.27;;;;;;;-4.88;100.00;103493.94;10044285;29;20053;-69
2024/01/10 03:23:59;;;;;;;27.58;18.42;;;;;;;-4.84;100.00;103497.16;10039913;29;20081;-71
2024/01/10 03:28:56;;;;;;;26.92;18.88;;;;;;;-4.65;100.00;103499.75;10045733;29;20063;-69
2024/01/10 03:33:52;;;;;;;26.63;19.45;;;;;;;-4.68;100.00;103502.72;10040530;29;20078;-71
2024/01/10 03:38:49;;;;;;;27.65;19.38;;;;;;;-4.72;100.00;103491.47;10044789;29;20036;-70
2024/01/10 03:43:46;;;;;;;24.23;18.58;;;;;;;-4.64;100.00;103493.44;10041492;29;20044;-68
2024/01/10 03:48:50;;;;;;;25.90;18.30;;;;;;;-4.69;100.00;103479.66;10041671;29;20058;-70
2024/01/10 03:53:49;;;;;;;28.25;18.58;;;;;;;-4.72;100.00;103479.97;10035254;29;20124;-70
2024/01/10 03:58:48;;;;;;;33.28;18.75;;;;;;;-4.58;100.00;103484.81;10034763;29;20062;-70
2024/01/10 04:03:45;;;;;;;28.40;19.38;;;;;;;-4.58;100.00;103484.81;10037021;29;20052;-69
2024/01/10 04:08:41;;;;;;;30.48;20.35;;;;;;;-4.60;100.00;103489.44;10040826;29;20079;-70
2024/01/10 04:13:37;;;;;;;36.33;20.10;;;;;;;-4.50;100.00;103479.56;10036339;29;20120;-71
2024/01/10 04:18:34;;;;;;;35.85;19.52;;;;;;;-4.44;100.00;103489.63;10032269;29;20051;-71
2024/01/10 04:23:33;;;;;;;30.27;21.52;;;;;;;-4.40;100.00;103473.34;10032509;29;20062;-71
2024/01/10 04:28:29;;;;;;;31.40;19.77;;;;;;;-4.33;100.00;103477.91;10043058;28;20043;-70
2024/01/10 04:33:26;;;;;;;31.33;19.23;;;;;;;-4.29;100.00;103478.47;10026062;29;20048;-74
2024/01/10 04:38:26;;;;;;;27.23;19.35;;;;;;;-4.28;100.00;103482.81;10041426;29;20058;-73
2024/01/10 04:43:23;;;;;;;31.15;21.13;;;;;;;-4.25;100.00;103474.47;10026836;29;20580;-72
2024/01/10 04:48:19;;;;;;;31.52;20.48;;;;;;;-4.25;100.00;103466.47;10035919;29;20099;-74
2024/01/10 04:53:16;;;;;;;30.77;21.92;;;;;;;-4.23;100.00;103459.97;10030103;29;20503;-73
2024/01/10 04:58:12;;;;;;;26.00;19.55;;;;;;;-4.10;100.00;103466.78;10026356;29;20406;-71
2024/01/10 05:03:09;;;;;;;28.13;20.20;;;;;;;-4.00;100.00;103456.00;10027753;29;20043;-71
2024/01/10 05:08:06;;;;;;;22.17;18.50;;;;;;;-3.95;100.00;103453.72;10019230;29;20103;-72
2024/01/10 05:13:02;;;;;;;25.42;18.80;;;;;;;-3.95;100.00;103456.38;10029308;29;20431;-73
2024/01/10 05:17:59;;;;;;;20.77;18.50;;;;;;;-4.01;100.00;103447.16;10022628;29;20040;-73
2024/01/10 05:22:58;;;;;;;21.40;17.90;;;;;;;-3.89;100.00;103450.44;10024622;29;20584;-72
2024/01/10 05:27:55;;;;;;;20.05;18.00;;;;;;;-3.91;100.00;103447.91;10034776;28;20101;-73
2024/01/10 05:32:51;;;;;;;21.42;17.75;;;;;;;-3.85;100.00;103447.31;10024904;29;20055;-72
2024/01/10 05:37:48;;;;;;;20.15;18.05;;;;;;;-3.80;100.00;103457.53;10030450;29;20048;-72
2024/01/10 05:42:45;;;;;;;20.08;17.98;;;;;;;-3.80;100.00;103441.50;10021866;29;20052;-72
2024/01/10 05:47:41;;;;;;;20.40;17.65;;;;;;;-3.71;100.00;103431.66;10025449;29;20052;-73
2024/01/10 05:52:38;;;;;;;20.17;17.77;;;;;;;-3.69;100.00;103435.91;10017777;28;20138;-71
2024/01/10 05:57:35;;;;;;;19.73;17.70;;;;;;;-3.79;100.00;103440.47;10041039;29;20055;-70
2024/01/10 06:02:31;;;;;;;18.55;16.58;;;;;;;-3.76;100.00;103429.50;10043203;29;20474;-71
2024/01/10 06:07:28;;;;;;;18.42;16.65;;;;;;;-3.86;100.00;103439.44;10041354;29;20071;-69
2024/01/10 06:12:25;;;;;;;17.42;15.88;;;;;;;-3.78;100.00;103442.19;10051391;29;20047;-70
2024/01/10 06:17:21;;;;;;;18.23;16.48;;;;;;;-3.78;100.00;103431.47;10038800;28;20486;-72
2024/01/10 06:22:18;;;;;;;19.67;17.75;;;;;;;-3.77;100.00;103438.50;10039057;29;20078;-70
2024/01/10 06:27:15;;;;;;;18.63;16.70;;;;;;;-3.74;100.00;103437.34;10019664;29;20060;-72
2024/01/10 06:32:11;;;;;;;19.52;17.42;;;;;;;-3.54;100.00;103436.16;10042092;29;20056;-73
2024/01/10 06:37:08;;;;;;;19.63;17.67;;;;;;;-3.51;100.00;103426.97;10042311;28;20043;-72
2024/01/10 06:42:06;;;;;;;18.30;16.60;;;;;;;-3.68;100.00;103434.88;10046451;29;20138;-72
2024/01/10 06:47:03;;;;;;;18.38;16.60;;;;;;;-3.57;100.00;103435.63;10032527;29;20051;-72
2024/01/10 06:52:00;;;;;;;17.60;16.00;;;;;;;-3.61;100.00;103443.97;10041220;29;20067;-71
2024/01/10 06:56:57;;;;;;;19.98;18.00;;;;;;;-3.56;100.00;103445.34;10037025;29;20047;-73
2024/01/10 07:01:55;;;;;;;20.63;17.55;;;;;;;-3.60;100.00;103445.66;10026432;29;20040;-70
2024/01/10 07:06:52;;;;;;;19.65;17.02;;;;;;;-3.54;100.00;103438.84;10035452;29;20131;-70
2024/01/10 07:11:49;;;;;;;18.85;16.88;;;;;;;-3.43;100.00;103437.75;10044507;29;20070;-71
2024/01/10 07:16:45;;;;;;;19.85;17.90;;;;;;;-3.46;100.00;103440.72;10043905;28;20063;-69
2024/01/10 07:21:43;;;;;;;21.60;19.35;;;;;;;-3.70;100.00;103444.06;10052655;29;20071;-69
2024/01/10 07:26:40;;;;;;;22.63;18.30;;;;;;;-3.55;100.00;103436.31;10044969;29;20062;-70
2024/01/10 07:31:37;;;;;;;18.70;16.70;;;;;;;-3.44;100.00;103449.41;10035538;29;20146;-70
2024/01/10 07:36:42;;;;;;;20.75;17.55;;;;;;;-3.36;100.00;103440.59;10040426;28;20475;-71
2024/01/10 07:41:38;;;;;;;22.83;18.17;;;;;;;-3.49;100.00;103443.72;10032366;29;20035;-71
2024/01/10 07:46:38;;;;;;;17.80;16.10;;;;;;;-3.47;100.00;103444.41;10041626;29;20051;-70
2024/01/10 07:51:34;;;;;;;18.85;16.88;;;;;;;-3.42;100.00;103436.72;10043833;29;20050;-70
2024/01/10 07:56:31;;;;;;;22.27;16.67;;;;;;;-3.36;100.00;103441.47;10025095;29;20431;-70
2024/01/10 08:01:27;;;;;;;21.15;17.35;;;;;;;-3.41;100.00;103459.81;10032629;29;20420;-71
2024/01/10 08:06:24;;;;;;;17.95;16.02;;;;;;;-3.52;100.00;103462.75;10037058;29;20448;-70
2024/01/10 08:11:28;;;;;;;20.60;16.77;;;;;;;-3.44;100.00;103465.47;10037904;29;20092;-71
2024/01/10 08:16:25;;;;;;;18.67;16.77;;;;;;;-3.37;100.00;103466.53;10035050;29;20043;-69
2024/01/10 08:21:21;;;;;;;20.40;17.77;;;;;;;-3.23;100.00;103463.25;10033408;29;20065;-70
2024/01/10 08:26:18;;;;;;;21.67;18.08;;;;;;;-3.14;100.00;103466.00;10030235;29;20051;-69
2024/01/10 08:31:17;;;;;;;19.35;17.35;;;;;;;-3.20;100.00;103468.31;10050668;29;20051;-71
2024/01/10 08:36:16;;;;;;;20.90;16.90;;;;;;;-3.21;100.00;103463.94;10033464;29;20051;-70
2024/01/10 08:41:13;;;;;;;19.17;16.88;;;;;;;-3.12;100.00;103461.31;10039318;29;20464;-69
2024/01/10 08:46:09;;;;;;;19.35;17.23;;;;;;;-3.03;100.00;103463.03;10035061;29;20519;-70
2024/01/10 08:51:09;;;;;;;20.20;17.08;;;;;;;-3.07;100.00;103467.03;10020303;29;20127;-70
2024/01/10 08:56:06;;;;;;;19.17;17.17;;;;;;;-2.86;100.00;103470.13;10041641;28;20044;-70
2024/01/10 09:01:05;;;;;;;20.00;17.25;;;;;;;-2.73;100.00;103466.19;10025021;29;20058;-71
2024/01/10 09:06:03;;;;;;;18.85;16.45;;;;;;;-2.72;100.00;103465.19;10036829;29;20115;-70
2024/01/10 09:11:06;;;;;;;18.35;16.48;;;;;;;-2.93;100.00;103447.69;10034628;29;20055;-70
2024/01/10 09:16:04;;;;;;;20.63;16.73;;;;;;;-2.86;100.00;103448.72;10032252;29;20048;-70
2024/01/10 09:21:00;;;;;;;16.73;15.02;;;;;;;-2.90;100.00;103455.41;10034036;29;20122;-71
2024/01/10 09:25:57;;;;;;;17.02;15.30;;;;;;;-2.83;100.00;103443.06;10040511;29;20118;-70
2024/01/10 09:30:54;;;;;;;20.70;16.30;;;;;;;-2.86;100.00;103443.38;10043764;28;20039;-70
2024/01/10 09:35:50;;;;;;;24.95;17.17;;;;;;;-2.77;100.00;103437.03;10056953;29;20923;-71
2024/01/10 09:40:47;;;;;;;18.50;16.08;;;;;;;-2.66;100.00;103443.13;10043567;29;20056;-69
2024/01/10 09:45:48;;;;;;;22.88;17.27;;;;;;;-2.65;100.00;103439.44;10040456;29;20048;-70
2024/01/10 09:50:48;;;;;;;17.15;15.07;;;;;;;-2.78;100.00;103430.03;10040625;29;20055;-71
2024/01/10 09:55:44;;;;;;;21.90;16.42;;;;;;;-2.84;100.00;103430.66;10046544;29;20047;-70
2024/01/10 10:00:42;;;;;;;23.63;16.20;;;;;;;-2.43;100.00;103433.47;10040780;29;20044;-71
2024/01/10 10:05:41;;;;;;;20.50;15.10;;;;;;;-2.25;100.00;103445.88;10046172;29;20099;-71
2024/01/10 10:10:42;;;;;;;20.27;15.40;;;;;;;-2.53;100.00;103438.09;10043233;29;20103;-70
2024/01/10 10:15:39;;;;;;;18.40;15.30;;;;;;;-2.40;100.00;103443.84;10039212;29;20051;-70
2024/01/10 10:20:37;;;;;;;25.20;16.45;;;;;;;-2.81;100.00;103445.56;10046534;29;20052;-71
2024/01/10 10:25:35;;;;;;;20.27;15.23;;;;;;;-2.90;100.00;103443.84;10042118;29;20051;-70
2024/01/10 10:30:33;;;;;;;21.17;15.88;;;;;;;-2.45;100.00;103443.50;10046328;29;20063;-69
2024/01/10 10:35:30;;;;;;;19.50;14.85;;;;;;;-1.96;100.00;103440.88;10047931;29;20039;-70
2024/01/10 10:40:36;;;;;;;21.75;14.63;;;;;;;-1.50;100.00;103435.81;10037745;29;20049;-70
2024/01/10 10:45:33;;;;;;;18.10;14.82;;;;;;;-1.46;100.00;103446.19;10041411;29;20054;-71
2024/01/10 10:50:35;;;;;;;19.13;14.98;;;;;;;-1.99;100.00;103454.63;10042688;29;20550;-70
2024/01/10 10:55:34;;;;;;;19.10;14.48;;;;;;;-1.80;100.00;103444.56;10045115;29;20507;-72
2024/01/10 11:00:32;;;;;;;21.73;14.90;;;;;;;-1.69;100.00;103457.66;10043024;29;20047;-70
2024/01/10 11:05:29;;;;;;;23.30;14.55;;;;;;;-1.73;100.00;103459.00;10044664;29;20108;-70
2024/01/10 11:10:33;;;;;;;19.60;14.98;;;;;;;-1.65;100.00;103450.91;10031522;29;20063;-71
2024/01/10 11:15:42;;;;;;;20.42;16.23;;;;;;;-1.40;100.00;103456.28;10030017;29;20103;-71
2024/01/10 11:20:53;;;;;;;16.67;14.88;;;;;;;-1.82;100.00;103446.59;10026321;29;20051;-70
2024/01/10 11:25:51;;;;;;;15.15;13.32;;;;;;;-2.19;100.00;103450.59;10032875;29;20726;-70
2024/01/10 11:30:49;;;;;;;14.85;13.25;;;;;;;-2.12;100.00;103446.22;10027268;29;20066;-71
2024/01/10 11:36:11;;;;;;;14.82;13.27;;;;;;;-2.13;100.00;103439.22;10023466;29;20142;-70
2024/01/10 11:41:10;;;;;;;15.30;12.63;;;;;;;-1.93;100.00;103435.19;10028196;29;20569;-70
2024/01/10 11:46:08;;;;;;;16.98;13.38;;;;;;;-2.16;100.00;103434.16;10018003;29;20666;-70
2024/01/10 11:51:04;;;;;;;13.50;12.13;;;;;;;-1.88;100.00;103436.53;10016641;29;20039;-70
2024/01/10 11:56:10;;;;;;;12.88;11.55;;;;;;;-1.71;100.00;103435.53;10027596;28;20079;-69
2024/01/10 12:01:07;;;;;;;12.27;11.00;;;;;;;-2.04;100.00;103430.16;10016591;29;20119;-70
2024/01/10 12:06:04;;;;;;;13.88;12.13;;;;;;;-1.85;100.00;103426.31;10018555;29;20046;-69
2024/01/10 12:11:01;;;;;;;13.40;12.00;;;;;;;-1.49;100.00;103410.66;10024700;29;20051;-70
2024/01/10 12:15:57;;;;;;;12.48;11.18;;;;;;;-1.49;100.00;103409.81;10035290;28;20040;-69
2024/01/10 12:20:54;;;;;;;13.75;12.32;;;;;;;-1.62;100.00;103409.53;10024921;29;20055;-70
2024/01/10 12:25:50;;;;;;;14.18;11.55;;;;;;;-1.80;100.00;103407.03;10035695;28;20051;-69
2024/01/10 12:30:47;;;;;;;13.00;11.70;;;;;;;-1.74;100.00;103406.34;10012919;29;21348;-70
2024/01/10 12:35:44;;;;;;;15.18;11.80;;;;;;;-1.91;100.00;103400.97;10013085;29;20047;-70
2024/01/10 12:40:42;;;;;;;13.15;11.57;;;;;;;-1.98;100.00;103399.97;10040043;29;20055;-69
2024/01/10 12:45:38;;;;;;;15.25;12.13;;;;;;;-1.95;100.00;103397.00;10027896;29;20122;-70
2024/01/10 12:50:35;;;;;;;13.60;11.57;;;;;;;-1.87;100.00;103396.13;10023817;29;20044;-69
2024/01/10 12:55:31;;;;;;;13.85;12.10;;;;;;;-1.98;100.00;103401.84;10029470;29;20046;-68
2024/01/10 13:00:28;;;;;;;14.23;12.25;;;;;;;-1.77;100.00;103396.78;10029563;29;20051;-70
2024/01/10 13:05:25;;;;;;;14.50;12.13;;;;;;;-1.65;100.00;103383.84;10015606;29;20107;-70
2024/01/10 13:10:22;;;;;;;12.82;11.32;;;;;;;-1.52;100.00;103384.16;10023555;29;20776;-69
2024/01/10 13:15:19;;;;;;;13.93;11.25;;;;;;;-1.79;100.00;103381.88;10020691;29;20047;-69
2024/01/10 13:20:15;;;;;;;13.82;10.93;;;;;;;-1.53;100.00;103387.03;10022054;29;20039;-70
2024/01/10 13:25:12;;;;;;;13.18;10.85;;;;;;;-1.36;100.00;103393.19;10012997;29;20047;-69
2024/01/10 13:30:12;;;;;;;14.10;11.32;;;;;;;-1.33;100.00;103382.94;10020028;29;20055;-70
2024/01/10 13:35:09;;;;;;;15.20;11.77;;;;;;;-1.22;100.00;103379.03;10022901;29;20543;-70
2024/01/10 13:40:07;;;;;;;16.38;12.43;;;;;;;-1.21;100.00;103375.34;10025544;29;20046;-70
2024/01/10 13:45:05;;;;;;;14.95;11.88;;;;;;;-1.63;100.00;103371.09;10018582;29;20059;-70
2024/01/10 13:50:03;;;;;;;12.50;10.85;;;;;;;-1.61;100.00;103369.09;10021686;29;20119;-70
2024/01/10 13:55:00;;;;;;;15.48;12.25;;;;;;;-1.55;100.00;103372.97;10025366;29;20100;-71
2024/01/10 13:59:57;;;;;;;15.65;11.93;;;;;;;-1.59;100.00;103367.06;10013647;29;20040;-70
2024/01/10 14:04:59;;;;;;;15.90;11.98;;;;;;;-1.74;100.00;103374.16;10008039;29;20044;-69
2024/01/10 14:09:56;;;;;;;12.93;11.48;;;;;;;-1.81;100.00;103375.84;10019237;29;20043;-69
2024/01/10 14:14:52;;;;;;;13.23;11.32;;;;;;;-1.73;100.00;103365.09;10028005;28;20083;-70
2024/01/10 14:19:51;;;;;;;12.63;11.30;;;;;;;-1.84;100.00;103362.78;10025701;29;20135;-70
2024/01/10 14:24:47;;;;;;;12.32;11.05;;;;;;;-1.78;100.00;103357.56;10028866;29;20047;-70
2024/01/10 14:29:44;;;;;;;13.27;11.88;;;;;;;-1.92;100.00;103367.16;10032574;29;20055;-70
2024/01/10 14:34:41;;;;;;;13.27;11.93;;;;;;;-1.99;100.00;103366.16;10036349;29;20067;-70
2024/01/10 14:39:38;;;;;;;13.90;12.40;;;;;;;-2.14;100.00;103359.78;10034330;29;20044;-69
2024/01/10 14:44:35;;;;;;;13.18;11.90;;;;;;;-2.25;100.00;103362.78;10024940;29;20257;-70
2024/01/10 14:49:32;;;;;;;14.15;12.73;;;;;;;-2.39;100.00;103365.16;10032650;29;20122;-70
2024/01/10 14:54:29;;;;;;;15.30;13.15;;;;;;;-2.55;100.00;103370.50;10018171;29;20143;-69
2024/01/10 14:59:25;;;;;;;14.02;12.63;;;;;;;-2.46;100.00;103369.50;10026747;29;20059;-69
2024/01/10 15:04:40;;;;;;;14.70;13.15;;;;;;;-2.35;100.00;103377.19;10021868;29;20051;-70
2024/01/10 15:09:37;;;;;;;17.92;14.57;;;;;;;-2.47;100.00;103378.53;10027469;29;20111;-70
2024/01/10 15:14:43;;;;;;;18.90;13.82;;;;;;;-2.38;100.00;103385.56;10023660;29;20078;-70
2024/01/10 15:19:40;;;;;;;17.75;14.30;;;;;;;-2.36;100.00;103386.25;10032724;29;20050;-69
2024/01/10 15:24:38;;;;;;;19.77;15.00;;;;;;;-2.41;100.00;103383.22;10031465;29;20675;-70
2024/01/10 15:29:36;;;;;;;17.25;15.23;;;;;;;-2.63;100.00;103383.84;10019131;29;20079;-69
2024/01/10 15:34:33;;;;;;;15.02;13.57;;;;;;;-2.65;100.00;103396.56;10018554;29;20055;-69
2024/01/10 15:39:30;;;;;;;16.33;14.60;;;;;;;-2.77;100.00;103393.34;10011248;29;20603;-69
2024/01/10 15:44:26;;;;;;;16.35;14.50;;;;;;;-2.82;100.00;103401.88;10035188;29;20696;-70
2024/01/10 15:49:23;;;;;;;15.77;14.07;;;;;;;-2.89;100.00;103395.50;10017069;29;20075;-71
2024/01/10 15:54:23;;;;;;;19.15;15.65;;;;;;;-2.91;100.00;103394.81;10013951;29;20135;-70
2024/01/10 15:59:19;;;;;;;17.90;16.00;;;;;;;-3.13;100.00;103392.72;10033478;29;20550;-70
2024/01/10 16:04:17;;;;;;;17.77;15.90;;;;;;;-2.94;100.00;103389.81;10029647;29;20058;-70
2024/01/10 16:09:13;;;;;;;16.92;14.77;;;;;;;-2.90;100.00;103383.13;10019141;29;20610;-69
2024/01/10 16:14:10;;;;;;;18.05;15.60;;;;;;;-2.97;100.00;103371.38;10013795;29;20780;-70
2024/01/10 16:19:07;;;;;;;18.67;15.48;;;;;;;-3.02;100.00;103373.69;10013969;29;20047;-70
2024/01/10 16:24:03;;;;;;;21.75;16.25;;;;;;;-2.90;100.00;103367.06;10015573;29;20165;-69
2024/01/10 16:29:00;;;;;;;18.00;16.15;;;;;;;-2.86;100.00;103362.22;10041488;29;20111;-71
2024/01/10 16:33:56;;;;;;;18.60;16.65;;;;;;;-2.90;100.00;103367.06;10021726;29;20043;-71
2024/01/10 16:38:54;;;;;;;20.85;17.33;;;;;;;-2.86;100.00;103367.56;10021692;29;20053;-71
2024/01/10 16:43:52;;;;;;;20.00;16.63;;;;;;;-2.78;100.00;103371.09;10036037;29;20051;-69
2024/01/10 16:48:48;;;;;;;21.58;17.58;;;;;;;-2.77;100.00;103366.59;10036626;29;20117;-71
2024/01/10 16:53:45;;;;;;;23.98;17.95;;;;;;;-2.70;100.00;103366.78;10030214;29;20462;-72
2024/01/10 16:58:42;;;;;;;21.70;18.08;;;;;;;-2.65;100.00;103370.63;10040453;29;20110;-70
2024/01/10 17:03:38;;;;;;;23.00;20.23;;;;;;;-2.69;100.00;103363.06;10037392;29;20062;-71
2024/01/10 17:08:35;;;;;;;20.20;18.02;;;;;;;-2.62;100.00;103359.59;10041804;29;20050;-72
2024/01/10 17:13:32;;;;;;;23.75;18.70;;;;;;;-2.83;100.00;103362.72;10030005;29;20055;-70
2024/01/10 17:18:28;;;;;;;20.88;18.63;;;;;;;-2.70;100.00;103356.06;10019355;29;20047;-70
2024/01/10 17:23:25;;;;;;;22.02;19.63;;;;;;;-2.84;100.00;103360.22;10025305;29;20139;-72
2024/01/10 17:28:22;;;;;;;20.73;18.77;;;;;;;-2.88;100.00;103357.00;10035247;28;20130;-73
2024/01/10 17:33:21;;;;;;;21.90;18.15;;;;;;;-2.76;100.00;103358.41;10037442;29;20056;-71
2024/01/10 17:38:18;;;;;;;21.30;18.20;;;;;;;-2.87;100.00;103358.69;10032334;29;20070;-71
2024/01/10 17:43:14;;;;;;;21.73;19.08;;;;;;;-2.71;100.00;103359.75;10028672;29;20039;-71
2024/01/10 17:48:11;;;;;;;24.35;18.80;;;;;;;-2.66;100.00;103346.69;10021227;29;20047;-71
2024/01/10 17:53:10;;;;;;;20.42;18.30;;;;;;;-2.73;100.00;103351.03;10041782;29;20054;-72
2024/01/10 17:58:08;;;;;;;21.38;18.15;;;;;;;-2.72;100.00;103347.34;10042101;29;20052;-71
2024/01/10 18:03:04;;;;;;;21.88;19.05;;;;;;;-2.69;100.00;103352.34;10023835;29;20554;-71
2024/01/10 18:08:01;;;;;;;21.98;19.63;;;;;;;-2.77;100.00;103348.66;10049893;29;20046;-70
2024/01/10 18:13:02;;;;;;;20.45;18.25;;;;;;;-2.75;100.00;103354.69;10034244;29;20468;-71
2024/01/10 18:17:58;;;;;;;22.30;18.27;;;;;;;-2.98;100.00;103348.28;10046407;29;20047;-71
2024/01/10 18:22:55;;;;;;;23.23;17.90;;;;;;;-2.97;100.00;103350.81;10042572;29;20460;-70
2024/01/10 18:27:51;;;;;;;24.48;18.23;;;;;;;-2.94;100.00;103354.16;10032608;29;20427;-70
2024/01/10 18:32:48;;;;;;;24.25;19.13;;;;;;;-2.73;100.00;103351.03;10037071;29;20104;-72
2024/01/10 18:37:50;;;;;;;21.15;18.95;;;;;;;-2.67;100.00;103356.56;10049918;28;20048;-70
2024/01/10 18:42:47;;;;;;;23.88;19.20;;;;;;;-2.81;100.00;103350.03;10031257;29;20063;-72
2024/01/10 18:47:43;;;;;;;21.00;18.58;;;;;;;-2.79;100.00;103348.00;10036612;29;20496;-69
2024/01/10 18:52:40;;;;;;;24.23;19.33;;;;;;;-2.82;100.00;103342.97;10042741;29;20058;-69
2024/01/10 18:57:37;;;;;;;19.60;17.63;;;;;;;-2.76;100.00;103336.97;10048221;29;20118;-71
2024/01/10 19:02:34;;;;;;;21.73;19.42;;;;;;;-2.79;100.00;103356.03;10050853;29;20115;-72
2024/01/10 19:07:31;;;;;;;20.67;18.42;;;;;;;-2.76;100.00;103357.56;10039565;29;20058;-69
2024/01/10 19:12:27;;;;;;;21.55;18.48;;;;;;;-2.87;100.00;103349.84;10046276;29;20443;-72
2024/01/10 19:17:24;;;;;;;21.73;18.40;;;;;;;-2.87;100.00;103345.31;10047864;28;20062;-71
2024/01/10 19:22:21;;;;;;;19.98;17.88;;;;;;;-2.85;100.00;103363.91;10037069;29;20055;-72
2024/01/10 19:27:18;;;;;;;22.15;18.48;;;;;;;-2.78;100.00;103364.91;10038499;29;20131;-70
2024/01/10 19:32:14;;;;;;;20.55;18.00;;;;;;;-2.82;100.00;103353.69;10037695;29;20048;-70
2024/01/10 19:37:11;;;;;;;20.67;18.33;;;;;;;-2.80;100.00;103367.75;10052239;29;20040;-70
2024/01/10 19:42:07;;;;;;;21.10;18.83;;;;;;;-2.88;100.00;103354.31;10049432;29;20055;-71
2024/01/10 19:47:06;;;;;;;20.98;18.73;;;;;;;-2.83;100.00;103360.06;10036263;29;20051;-71
2024/01/10 19:52:03;;;;;;;19.08;17.13;;;;;;;-2.98;100.00;103359.00;10041023;29;20131;-72
2024/01/10 19:56:59;;;;;;;21.25;18.52;;;;;;;-2.78;100.00;103360.41;10053359;28;20459;-71
2024/01/10 20:01:56;;;;;;;22.58;18.52;;;;;;;-2.70;100.00;103359.56;10050889;29;20047;-71
2024/01/10 20:06:52;;;;;;;20.63;17.17;;;;;;;-2.81;100.00;103365.22;10033530;29;20130;-71
2024/01/10 20:11:49;;;;;;;21.35;18.40;;;;;;;-2.64;100.00;103363.44;10042968;29;20415;-71
2024/01/10 20:16:46;;;;;;;21.75;18.63;;;;;;;-2.66;100.00;103362.75;10041760;29;20051;-72
2024/01/10 20:21:43;;;;;;;20.08;17.83;;;;;;;-2.76;100.00;103371.78;10034048;29;20123;-71
2024/01/10 20:26:39;;;;;;;21.27;17.27;;;;;;;-2.84;100.00;103371.75;10044718;28;20051;-71
2024/01/10 20:31:36;;;;;;;23.48;17.42;;;;;;;-2.93;100.00;103372.72;10040178;29;20095;-71
2024/01/10 20:36:34;;;;;;;19.95;17.77;;;;;;;-2.82;100.00;103380.47;10052410;28;20047;-71
2024/01/10 20:41:31;;;;;;;27.02;19.25;;;;;;;-2.77;100.00;103390.69;10041563;29;20048;-71
2024/01/10 20:46:28;;;;;;;25.17;18.90;;;;;;;-2.73;100.00;103396.56;10038283;29;20062;-71
2024/01/10 20:51:25;;;;;;;22.98;18.42;;;;;;;-2.80;100.00;103388.34;10030002;29;20515;-70
2024/01/10 20:56:21;;;;;;;23.98;18.92;;;;;;;-2.70;100.00;103394.38;10038543;29;20680;-71
2024/01/10 21:01:19;;;;;;;24.13;19.05;;;;;;;-2.76;100.00;103390.53;10034403;29;20044;-71
2024/01/10 21:06:15;;;;;;;23.90;19.45;;;;;;;-2.71;100.00;103386.53;10034345;29;20071;-70
2024/01/10 21:11:15;;;;;;;25.33;18.60;;;;;;;-2.67;100.00;103406.59;10047758;29;20101;-71
2024/01/10 21:16:12;;;;;;;22.55;18.52;;;;;;;-2.75;100.00;103397.56;10031087;29;20590;-71
2024/01/10 21:21:08;;;;;;;27.58;18.92;;;;;;;-2.70;100.00;103388.19;10025628;29;20289;-72
2024/01/10 21:26:05;;;;;;;28.33;20.35;;;;;;;-2.63;100.00;103391.88;10031506;29;20061;-75
2024/01/10 21:31:02;;;;;;;29.55;19.90;;;;;;;-2.66;100.00;103394.91;10028860;29;20047;-68
2024/01/10 21:35:58;;;;;;;26.02;20.17;;;;;;;-3.22;100.00;103390.03;10041993;28;20040;-70
2024/01/10 21:40:55;;;;;;;25.67;21.15;;;;;;;-3.12;100.00;103399.75;10039534;29;20045;-69
2024/01/10 21:45:51;;;;;;;31.40;20.35;;;;;;;-2.99;100.00;103389.47;10043921;29;20423;-68
2024/01/10 21:50:50;;;;;;;28.88;21.33;;;;;;;-2.69;100.00;103384.50;10038749;29;20040;-70
2024/01/10 21:55:46;;;;;;;32.00;20.77;;;;;;;-2.55;100.00;103381.22;10045964;28;20079;-68
2024/01/10 22:00:43;;;;;;;30.52;21.20;;;;;;;-2.54;100.00;103375.66;10040378;29;20534;-69